Time,TemperatureF,DewpointF,PressureIn,WindDirection,WindDirectionDegrees,WindSpeedMPH,WindSpeedGustMPH,Humidity,HourlyPrecipIn,Conditions,Clouds,dailyrainin,SoftwareType,DateUTC
2013-06-20 00:04:00,70.0,60.5,29.79,ESE,112,2.7,-999.0,72,-99.99,,,0.00,Acu-Link.com,2013-06-20 05:04:00,
2013-06-20 00:19:00,69.3,60.6,29.80,SE,135,2.7,-999.0,74,-99.99,,,0.00,Acu-Link.com,2013-06-20 05:19:00,
2013-06-20 00:34:00,68.9,60.6,29.80,ESE,112,2.7,-999.0,75,-99.99,,,0.00,Acu-Link.com,2013-06-20 05:34:00,
2013-06-20 00:50:00,67.8,60.3,29.80,ESE,112,3.7,-999.0,77,-99.99,,,0.00,Acu-Link.com,2013-06-20 05:50:00,
2013-06-20 01:05:00,67.8,60.3,29.80,ESE,112,3.7,-999.0,77,-99.99,,,0.00,Acu-Link.com,2013-06-20 06:05:00,
2013-06-20 01:20:00,67.6,60.8,29.79,ESE,112,2.7,-999.0,79,-99.99,,,0.00,Acu-Link.com,2013-06-20 06:20:00,
2013-06-20 01:36:00,67.3,60.9,29.79,SE,135,2.7,-999.0,80,-99.99,,,0.00,Acu-Link.com,2013-06-20 06:36:00,
2013-06-20 01:51:00,67.1,61.1,29.79,ESE,112,2.2,-999.0,81,-99.99,,,0.00,Acu-Link.com,2013-06-20 06:51:00,
2013-06-20 02:06:00,66.6,60.9,29.78,ESE,112,2.7,-999.0,82,-99.99,,,0.00,Acu-Link.com,2013-06-20 07:06:00,
2013-06-20 02:21:00,66.4,60.7,29.78,ESE,112,3.7,-999.0,82,-99.99,,,0.00,Acu-Link.com,2013-06-20 07:21:00,
2013-06-20 02:36:00,67.1,61.1,29.77,SE,135,3.2,-999.0,81,-99.99,,,0.00,Acu-Link.com,2013-06-20 07:36:00,
2013-06-20 02:51:00,66.9,60.9,29.77,SE,135,4.2,-999.0,81,-99.99,,,0.00,Acu-Link.com,2013-06-20 07:51:00,
2013-06-20 03:06:00,67.5,61.5,29.77,SE,135,4.7,-999.0,81,-99.99,,,0.00,Acu-Link.com,2013-06-20 08:06:00,
2013-06-20 03:21:00,67.3,61.3,29.77,SE,135,2.2,-999.0,81,-99.99,,,0.00,Acu-Link.com,2013-06-20 08:21:00,
2013-06-20 03:37:00,66.7,61.0,29.77,ESE,112,3.7,-999.0,82,-99.99,,,0.00,Acu-Link.com,2013-06-20 08:37:00,
2013-06-20 03:52:00,67.3,62.0,29.77,ESE,112,3.7,-999.0,83,-99.99,,,0.00,Acu-Link.com,2013-06-20 08:52:00,
2013-06-20 04:07:00,67.5,62.1,29.77,ESE,112,4.7,-999.0,83,-99.99,,,0.00,Acu-Link.com,2013-06-20 09:07:00,
2013-06-20 04:22:00,67.5,62.1,29.77,SE,135,4.2,-999.0,83,-99.99,,,0.00,Acu-Link.com,2013-06-20 09:22:00,
2013-06-20 04:37:00,66.7,62.0,29.76,ESE,112,4.2,-999.0,85,-99.99,,,0.00,Acu-Link.com,2013-06-20 09:37:00,
2013-06-20 04:52:00,66.6,62.3,29.76,ESE,112,3.7,-999.0,86,-99.99,,,0.00,Acu-Link.com,2013-06-20 09:52:00,
2013-06-20 05:08:00,66.4,62.4,29.76,SE,135,4.2,-999.0,87,-99.99,,,0.00,Acu-Link.com,2013-06-20 10:08:00,
2013-06-20 05:23:00,66.6,62.6,29.76,SE,135,6.3,-999.0,87,-99.99,,,0.00,Acu-Link.com,2013-06-20 10:23:00,
2013-06-20 05:38:00,66.9,62.9,29.76,SE,135,5.8,-999.0,87,-99.99,,,0.00,Acu-Link.com,2013-06-20 10:38:00,
2013-06-20 05:53:00,67.1,63.1,29.76,ESE,112,4.7,-999.0,87,-99.99,,,0.00,Acu-Link.com,2013-06-20 10:53:00,
2013-06-20 06:09:00,67.8,63.5,29.76,ESE,112,4.7,-999.0,86,-99.99,,,0.00,Acu-Link.com,2013-06-20 11:09:00,
2013-06-20 06:24:00,68.2,63.5,29.77,ESE,112,5.8,-999.0,85,-99.99,,,0.00,Acu-Link.com,2013-06-20 11:24:00,
2013-06-20 06:39:00,68.5,63.8,29.76,East,90,5.3,-999.0,85,-99.99,,,0.00,Acu-Link.com,2013-06-20 11:39:00,
2013-06-20 06:54:00,68.5,63.8,29.77,SE,135,6.8,-999.0,85,-99.99,,,0.00,Acu-Link.com,2013-06-20 11:54:00,
2013-06-20 07:09:00,68.7,64.0,29.76,ESE,112,6.8,-999.0,85,-99.99,,,0.00,Acu-Link.com,2013-06-20 12:09:00,
2013-06-20 07:24:00,70.2,64.4,29.76,ESE,112,5.3,-999.0,82,-99.99,,,0.00,Acu-Link.com,2013-06-20 12:24:00,
2013-06-20 07:40:00,72.0,65.1,29.75,ESE,112,9.4,-999.0,79,-99.99,,,0.00,Acu-Link.com,2013-06-20 12:40:00,
2013-06-20 07:55:00,73.8,65.7,29.75,ESE,112,8.3,-999.0,76,-99.99,,,0.00,Acu-Link.com,2013-06-20 12:55:00,
2013-06-20 08:10:00,75.2,65.9,29.75,ESE,112,10.4,-999.0,73,-99.99,,,0.00,Acu-Link.com,2013-06-20 13:10:00,
2013-06-20 08:25:00,76.3,66.6,29.74,North,0,12.5,-999.0,72,-99.99,,,0.00,Acu-Link.com,2013-06-20 13:25:00,
2013-06-20 08:40:00,77.4,67.2,29.74,South,180,15.5,-999.0,71,-99.99,,,0.00,Acu-Link.com,2013-06-20 13:40:00,
2013-06-20 08:55:00,78.1,67.5,29.74,WSW,247,11.4,-999.0,70,-99.99,,,0.00,Acu-Link.com,2013-06-20 13:55:00,
2013-06-20 09:10:00,78.8,67.3,29.74,SSE,157,18.1,-999.0,68,-99.99,,,0.00,Acu-Link.com,2013-06-20 14:10:00,
2013-06-20 09:25:00,79.3,67.8,29.73,SE,135,13.0,-999.0,68,-99.99,,,0.00,Acu-Link.com,2013-06-20 14:25:00,
2013-06-20 09:40:00,80.2,67.8,29.73,SE,135,18.1,-999.0,66,-99.99,,,0.00,Acu-Link.com,2013-06-20 14:40:00,
2013-06-20 09:55:00,81.3,68.8,29.72,SE,135,18.1,-999.0,66,-99.99,,,0.01,Acu-Link.com,2013-06-20 14:55:00,
2013-06-20 10:11:00,81.5,68.6,29.72,South,180,14.5,-999.0,65,-99.99,,,0.01,Acu-Link.com,2013-06-20 15:11:00,
2013-06-20 10:26:00,82.9,69.4,29.72,SE,135,16.6,-999.0,64,-99.99,,,0.01,Acu-Link.com,2013-06-20 15:26:00,
2013-06-20 10:41:00,83.3,69.4,29.71,SSE,157,18.1,-999.0,63,-99.99,,,0.01,Acu-Link.com,2013-06-20 15:41:00,
2013-06-20 10:56:00,84.0,69.6,29.71,SE,135,16.1,-999.0,62,-99.99,,,0.01,Acu-Link.com,2013-06-20 15:56:00,
2013-06-20 11:11:00,84.7,69.2,29.70,SSW,202,20.7,-999.0,60,-99.99,,,0.01,Acu-Link.com,2013-06-20 16:11:00,
2013-06-20 11:26:00,85.5,69.5,29.70,SSW,202,16.1,-999.0,59,-99.99,,,0.01,Acu-Link.com,2013-06-20 16:26:00,
2013-06-20 11:41:00,86.0,69.0,29.70,SE,135,15.0,-999.0,57,-99.99,,,0.01,Acu-Link.com,2013-06-20 16:41:00,
2013-06-20 11:56:00,86.2,68.6,29.71,South,180,16.6,-999.0,56,-99.99,,,0.01,Acu-Link.com,2013-06-20 16:56:00,
2013-06-20 12:11:00,86.5,69.4,29.71,SW,225,16.6,-999.0,57,-99.99,,,0.01,Acu-Link.com,2013-06-20 17:11:00,
2013-06-20 12:26:00,86.5,69.4,29.70,SE,135,18.6,-999.0,57,-99.99,,,0.01,Acu-Link.com,2013-06-20 17:26:00,
2013-06-20 12:41:00,87.3,70.2,29.70,SE,135,14.0,-999.0,57,-99.99,,,0.01,Acu-Link.com,2013-06-20 17:41:00,
2013-06-20 12:56:00,88.2,70.5,29.70,South,180,17.6,-999.0,56,-99.99,,,0.01,Acu-Link.com,2013-06-20 17:56:00,
2013-06-20 13:11:00,88.5,70.8,29.69,SSW,202,16.1,-999.0,56,-99.99,,,0.01,Acu-Link.com,2013-06-20 18:11:00,
2013-06-20 13:26:00,88.3,71.1,29.69,South,180,13.0,-999.0,57,-99.99,,,0.01,Acu-Link.com,2013-06-20 18:26:00,
2013-06-20 13:41:00,87.3,70.2,29.68,South,180,18.1,-999.0,57,-99.99,,,0.03,Acu-Link.com,2013-06-20 18:41:00,
2013-06-20 13:56:00,89.4,71.6,29.67,WSW,247,17.1,-999.0,56,-99.99,,,0.03,Acu-Link.com,2013-06-20 18:56:00,
2013-06-20 14:11:00,90.3,71.9,29.66,SSW,202,17.1,-999.0,55,-99.99,,,0.03,Acu-Link.com,2013-06-20 19:11:00,
2013-06-20 14:27:00,88.2,70.5,29.66,SE,135,16.6,-999.0,56,-99.99,,,0.03,Acu-Link.com,2013-06-20 19:27:00,
2013-06-20 14:42:00,90.3,71.4,29.67,ESE,112,24.3,-999.0,54,-99.99,,,0.03,Acu-Link.com,2013-06-20 19:42:00,
2013-06-20 14:57:00,91.2,71.6,29.66,SSW,202,20.7,-999.0,53,-99.99,,,0.03,Acu-Link.com,2013-06-20 19:57:00,
2013-06-20 15:12:00,89.8,70.9,29.66,SE,135,18.1,-999.0,54,-99.99,,,0.03,Acu-Link.com,2013-06-20 20:12:00,
2013-06-20 15:27:00,90.3,71.4,29.65,SE,135,17.6,-999.0,54,-99.99,,,0.04,Acu-Link.com,2013-06-20 20:27:00,
2013-06-20 15:42:00,90.9,71.4,29.64,South,180,21.7,-999.0,53,-99.99,,,0.06,Acu-Link.com,2013-06-20 20:42:00,
2013-06-20 15:57:00,91.0,71.5,29.64,South,180,22.2,-999.0,53,-99.99,,,0.06,Acu-Link.com,2013-06-20 20:57:00,
2013-06-20 16:12:00,91.0,71.5,29.64,South,180,14.5,-999.0,53,-99.99,,,0.06,Acu-Link.com,2013-06-20 21:12:00,
2013-06-20 16:27:00,91.6,72.0,29.64,SSE,157,21.2,-999.0,53,-99.99,,,0.08,Acu-Link.com,2013-06-20 21:27:00,
2013-06-20 16:42:00,91.2,71.6,29.63,South,180,18.6,-999.0,53,-99.99,,,0.13,Acu-Link.com,2013-06-20 21:42:00,
2013-06-20 16:57:00,91.2,71.6,29.63,SSE,157,14.0,-999.0,53,-99.99,,,0.13,Acu-Link.com,2013-06-20 21:57:00,
2013-06-20 17:12:00,91.0,72.0,29.63,SSE,157,17.1,-999.0,54,-99.99,,,0.13,Acu-Link.com,2013-06-20 22:12:00,
2013-06-20 17:27:00,90.9,71.4,29.63,SSE,157,17.1,-999.0,53,-99.99,,,0.13,Acu-Link.com,2013-06-20 22:27:00,
2013-06-20 17:42:00,90.9,71.9,29.63,SSE,157,12.5,-999.0,54,-99.99,,,0.15,Acu-Link.com,2013-06-20 22:42:00,
2013-06-20 17:58:00,90.1,71.2,29.63,WSW,247,15.5,-999.0,54,-99.99,,,0.15,Acu-Link.com,2013-06-20 22:58:00,
2013-06-20 18:13:00,90.1,71.2,29.64,SSW,202,14.5,-999.0,54,-99.99,,,0.15,Acu-Link.com,2013-06-20 23:13:00,
2013-06-20 18:28:00,89.8,70.9,29.64,SSE,157,12.5,-999.0,54,-99.99,,,0.15,Acu-Link.com,2013-06-20 23:28:00,
2013-06-20 18:43:00,89.2,70.9,29.64,SSE,157,10.4,-999.0,55,-99.99,,,0.15,Acu-Link.com,2013-06-20 23:43:00,
2013-06-20 18:58:00,89.1,70.8,29.64,South,180,15.0,-999.0,55,-99.99,,,0.15,Acu-Link.com,2013-06-20 23:58:00,
2013-06-20 19:13:00,88.5,70.8,29.64,SE,135,9.4,-999.0,56,-99.99,,,0.15,Acu-Link.com,2013-06-21 00:13:00,
2013-06-20 19:28:00,88.3,70.6,29.64,SSE,157,14.0,-999.0,56,-99.99,,,0.15,Acu-Link.com,2013-06-21 00:28:00,
2013-06-20 19:44:00,88.3,70.6,29.64,South,180,18.6,-999.0,56,-99.99,,,0.16,Acu-Link.com,2013-06-21 00:44:00,
2013-06-20 19:59:00,87.8,70.6,29.64,South,180,17.1,-999.0,57,-99.99,,,0.16,Acu-Link.com,2013-06-21 00:59:00,
2013-06-20 20:14:00,87.1,70.0,29.64,SSE,157,15.0,-999.0,57,-99.99,,,0.16,Acu-Link.com,2013-06-21 01:14:00,
2013-06-20 20:29:00,86.4,70.3,29.64,SSE,157,9.4,-999.0,59,-99.99,,,0.16,Acu-Link.com,2013-06-21 01:29:00,
2013-06-20 20:44:00,85.8,70.3,29.65,SSE,157,13.0,-999.0,60,-99.99,,,0.16,Acu-Link.com,2013-06-21 01:44:00,
2013-06-20 20:59:00,85.3,69.8,29.66,South,180,11.9,-999.0,60,-99.99,,,0.16,Acu-Link.com,2013-06-21 01:59:00,
2013-06-20 21:14:00,84.2,70.2,29.65,SSE,157,14.0,-999.0,63,-99.99,,,0.16,Acu-Link.com,2013-06-21 02:14:00,
2013-06-20 21:29:00,84.0,70.0,29.66,SE,135,8.9,-999.0,63,-99.99,,,0.16,Acu-Link.com,2013-06-21 02:29:00,
2013-06-20 21:44:00,83.8,69.8,29.67,SE,135,12.5,-999.0,63,-99.99,,,0.16,Acu-Link.com,2013-06-21 02:44:00,
2013-06-20 21:59:00,83.3,70.3,29.68,SE,135,8.9,-999.0,65,-99.99,,,0.16,Acu-Link.com,2013-06-21 02:59:00,
2013-06-20 22:15:00,82.6,70.5,29.68,SE,135,14.0,-999.0,67,-99.99,,,0.16,Acu-Link.com,2013-06-21 03:15:00,
2013-06-20 22:30:00,82.4,70.3,29.69,South,180,10.4,-999.0,67,-99.99,,,0.16,Acu-Link.com,2013-06-21 03:30:00,
2013-06-20 22:45:00,82.2,70.6,29.69,SSE,157,10.9,-999.0,68,-99.99,,,0.16,Acu-Link.com,2013-06-21 03:45:00,
2013-06-20 23:00:00,82.0,70.4,29.69,SSE,157,7.3,-999.0,68,-99.99,,,0.16,Acu-Link.com,2013-06-21 04:00:00,
2013-06-20 23:16:00,82.0,70.4,29.69,SSE,157,10.4,-999.0,68,-99.99,,,0.16,Acu-Link.com,2013-06-21 04:16:00,
2013-06-20 23:31:00,81.9,70.7,29.69,SE,135,14.0,-999.0,69,-99.99,,,0.16,Acu-Link.com,2013-06-21 04:31:00,
2013-06-20 23:46:00,81.7,70.5,29.70,SSE,157,8.3,-999.0,69,-99.99,,,0.16,Acu-Link.com,2013-06-21 04:46:00,